Terminal Aerodrome Forecast
Issued by NWS

Current Version | Previous Version | Text Only | Print | Product List | Glossary On
Versions: 1 2 3 4 5 6 7 8 9 10 11 12 13
000
FTUS45 KLKN 231729
TAFWMC
TAF
KWMC 231729Z 2318/2418 36005KT P6SM SCT050
     FM232000 34008KT P6SM BKN060
     FM240600 VRB04KT P6SM FEW060=

USA.gov is the U.S. government's official web portal to all federal, state and local government web resources and services.